Terminal Aerodrome Forecast
Issued by NWS Lake Charles, LA

Home | Current Version | Previous Version | Text Only | Print | Product List | Glossary On
Versions: 1 2 3 4 5 6 7 8 9 10 11 12 13 14 15
493
FTUS44 KLCH 092333
TAFARA
TAF
KARA 092333Z 1000/1024 32014G22KT P6SM SKC
     FM100200 31011KT P6SM SKC
     FM100400 VRB05KT P6SM SKC=

USA.gov is the U.S. government's official web portal to all federal, state and local government web resources and services.